<?xml version="1.0" encoding="UTF-8" standalone="no" ?>
<gpx xmlns="http://www.topografix.com/GPX/1/1" xmlns:xsi="http://www.w3.org/2001/XMLSchema-instance" xsi:schemaLocation="http://www.topografix.com/GPX/1/1 http://www.topografix.com/GPX/1/1/gpx.xsd" version="1.1" creator="VisuGPX - https://www.visugpx.com">
  <metadata>
    <name>Marche nordique</name>
    <desc><![CDATA[La Croix Perrin la Croix Servagnet La Cordelière]]></desc>
  </metadata>
  <trk>
    <name><![CDATA[30 sept. 2016 09:24:08]]></name>
    <cmt><![CDATA[30 sept. 2016 09:24:08]]></cmt>
    <desc><![CDATA[{DC1}Heure de fin	: 10:47:39
Durée totale	: 1h23:31
Moyenne globale	: 3.4 km/h
Aire incluse	: 564.7699 ha
Détails par segments
distance  | durée    | vit.moy. | vit.max. | déniv. + | déniv -
   km     | hh:mn:ss |   km/h   |   km/h   |    m     |    m
     4.41 | 01:16:19 |      3.5 |     14.0 |      103 |     -107
     0.10 | 00:01:27 |      4.0 |      4.2 |        1 |        0
     0.21 | 00:03:10 |      3.9 |      5.4 |        5 |       -1{DC2}]]></desc>
    <trkseg>
      <trkpt lat="45.12609" lon="5.55834">
        <ele>1213</ele>
        <time>2016-09-30T07:26:27Z</time>
      </trkpt>
      <trkpt lat="45.126" lon="5.55827">
        <ele>1223</ele>
        <time>2016-09-30T07:26:36Z</time>
      </trkpt>
      <trkpt lat="45.12592" lon="5.55834">
        <ele>1224</ele>
        <time>2016-09-30T07:26:44Z</time>
      </trkpt>
      <trkpt lat="45.12583" lon="5.55833">
        <ele>1222</ele>
        <time>2016-09-30T07:26:53Z</time>
      </trkpt>
      <trkpt lat="45.12571" lon="5.55842">
        <ele>1222</ele>
        <time>2016-09-30T07:26:58Z</time>
      </trkpt>
      <trkpt lat="45.1256" lon="5.55834">
        <ele>1219</ele>
        <time>2016-09-30T07:27:09Z</time>
      </trkpt>
      <trkpt lat="45.12554" lon="5.55824">
        <ele>1219</ele>
        <time>2016-09-30T07:27:17Z</time>
      </trkpt>
      <trkpt lat="45.12545" lon="5.55823">
        <ele>1220</ele>
        <time>2016-09-30T07:27:28Z</time>
      </trkpt>
      <trkpt lat="45.12537" lon="5.55819">
        <ele>1220</ele>
        <time>2016-09-30T07:27:34Z</time>
      </trkpt>
      <trkpt lat="45.12529" lon="5.55812">
        <ele>1220</ele>
        <time>2016-09-30T07:27:42Z</time>
      </trkpt>
      <trkpt lat="45.12524" lon="5.55816">
        <ele>1220</ele>
        <time>2016-09-30T07:27:44Z</time>
      </trkpt>
      <trkpt lat="45.12513" lon="5.55815">
        <ele>1221</ele>
        <time>2016-09-30T07:27:53Z</time>
      </trkpt>
      <trkpt lat="45.12496" lon="5.55807">
        <ele>1222</ele>
        <time>2016-09-30T07:27:58Z</time>
      </trkpt>
      <trkpt lat="45.12497" lon="5.55794">
        <ele>1222</ele>
        <time>2016-09-30T07:28:15Z</time>
      </trkpt>
      <trkpt lat="45.12491" lon="5.55785">
        <ele>1222</ele>
        <time>2016-09-30T07:28:21Z</time>
      </trkpt>
      <trkpt lat="45.12479" lon="5.55749">
        <ele>1223</ele>
        <time>2016-09-30T07:28:47Z</time>
      </trkpt>
      <trkpt lat="45.12473" lon="5.55745">
        <ele>1223</ele>
        <time>2016-09-30T07:28:50Z</time>
      </trkpt>
      <trkpt lat="45.12461" lon="5.55745">
        <ele>1223</ele>
        <time>2016-09-30T07:28:58Z</time>
      </trkpt>
      <trkpt lat="45.12454" lon="5.55735">
        <ele>1223</ele>
        <time>2016-09-30T07:29:15Z</time>
      </trkpt>
      <trkpt lat="45.12446" lon="5.55736">
        <ele>1220</ele>
        <time>2016-09-30T07:29:59Z</time>
      </trkpt>
      <trkpt lat="45.12445" lon="5.55726">
        <ele>1219</ele>
        <time>2016-09-30T07:30:11Z</time>
      </trkpt>
      <trkpt lat="45.12438" lon="5.55698">
        <ele>1217</ele>
        <time>2016-09-30T07:30:19Z</time>
      </trkpt>
      <trkpt lat="45.1243" lon="5.557">
        <ele>1216</ele>
        <time>2016-09-30T07:30:36Z</time>
      </trkpt>
      <trkpt lat="45.12421" lon="5.55704">
        <ele>1217</ele>
        <time>2016-09-30T07:30:48Z</time>
      </trkpt>
      <trkpt lat="45.12412" lon="5.55701">
        <ele>1219</ele>
        <time>2016-09-30T07:30:53Z</time>
      </trkpt>
      <trkpt lat="45.12382" lon="5.55701">
        <ele>1222</ele>
        <time>2016-09-30T07:31:17Z</time>
      </trkpt>
      <trkpt lat="45.12377" lon="5.55686">
        <ele>1223</ele>
        <time>2016-09-30T07:31:29Z</time>
      </trkpt>
      <trkpt lat="45.12374" lon="5.55674">
        <ele>1224</ele>
        <time>2016-09-30T07:31:40Z</time>
      </trkpt>
      <trkpt lat="45.1237" lon="5.55635">
        <ele>1223</ele>
        <time>2016-09-30T07:32:14Z</time>
      </trkpt>
      <trkpt lat="45.12373" lon="5.55621">
        <ele>1224</ele>
        <time>2016-09-30T07:32:28Z</time>
      </trkpt>
      <trkpt lat="45.12375" lon="5.55609">
        <ele>1224</ele>
        <time>2016-09-30T07:32:37Z</time>
      </trkpt>
      <trkpt lat="45.12372" lon="5.55596">
        <ele>1223</ele>
        <time>2016-09-30T07:32:46Z</time>
      </trkpt>
      <trkpt lat="45.12375" lon="5.55555">
        <ele>1225</ele>
        <time>2016-09-30T07:33:18Z</time>
      </trkpt>
      <trkpt lat="45.12378" lon="5.5554">
        <ele>1225</ele>
        <time>2016-09-30T07:33:33Z</time>
      </trkpt>
      <trkpt lat="45.12378" lon="5.55506">
        <ele>1225</ele>
        <time>2016-09-30T07:33:54Z</time>
      </trkpt>
      <trkpt lat="45.1238" lon="5.55492">
        <ele>1224</ele>
        <time>2016-09-30T07:34:09Z</time>
      </trkpt>
      <trkpt lat="45.12381" lon="5.55485">
        <ele>1224</ele>
        <time>2016-09-30T07:34:15Z</time>
      </trkpt>
      <trkpt lat="45.12387" lon="5.55466">
        <ele>1226</ele>
        <time>2016-09-30T07:34:32Z</time>
      </trkpt>
      <trkpt lat="45.12388" lon="5.5546">
        <ele>1226</ele>
        <time>2016-09-30T07:34:36Z</time>
      </trkpt>
      <trkpt lat="45.12397" lon="5.55428">
        <ele>1228</ele>
        <time>2016-09-30T07:35:02Z</time>
      </trkpt>
      <trkpt lat="45.12408" lon="5.55413">
        <ele>1228</ele>
        <time>2016-09-30T07:35:17Z</time>
      </trkpt>
      <trkpt lat="45.12411" lon="5.55406">
        <ele>1228</ele>
        <time>2016-09-30T07:35:22Z</time>
      </trkpt>
      <trkpt lat="45.12414" lon="5.55394">
        <ele>1228</ele>
        <time>2016-09-30T07:35:31Z</time>
      </trkpt>
      <trkpt lat="45.1243" lon="5.5536">
        <ele>1231</ele>
        <time>2016-09-30T07:36:01Z</time>
      </trkpt>
      <trkpt lat="45.12447" lon="5.55328">
        <ele>1235</ele>
        <time>2016-09-30T07:36:29Z</time>
      </trkpt>
      <trkpt lat="45.12453" lon="5.55319">
        <ele>1235</ele>
        <time>2016-09-30T07:36:38Z</time>
      </trkpt>
      <trkpt lat="45.12471" lon="5.55289">
        <ele>1239</ele>
        <time>2016-09-30T07:37:10Z</time>
      </trkpt>
      <trkpt lat="45.12476" lon="5.55264">
        <ele>1243</ele>
        <time>2016-09-30T07:37:28Z</time>
      </trkpt>
      <trkpt lat="45.12477" lon="5.55237">
        <ele>1244</ele>
        <time>2016-09-30T07:37:48Z</time>
      </trkpt>
      <trkpt lat="45.12482" lon="5.55225">
        <ele>1244</ele>
        <time>2016-09-30T07:37:57Z</time>
      </trkpt>
      <trkpt lat="45.12487" lon="5.55214">
        <ele>1245</ele>
        <time>2016-09-30T07:38:06Z</time>
      </trkpt>
      <trkpt lat="45.12487" lon="5.55201">
        <ele>1246</ele>
        <time>2016-09-30T07:38:15Z</time>
      </trkpt>
      <trkpt lat="45.12488" lon="5.55187">
        <ele>1246</ele>
        <time>2016-09-30T07:38:23Z</time>
      </trkpt>
      <trkpt lat="45.12487" lon="5.5516">
        <ele>1243</ele>
        <time>2016-09-30T07:38:47Z</time>
      </trkpt>
      <trkpt lat="45.12481" lon="5.55135">
        <ele>1241</ele>
        <time>2016-09-30T07:39:06Z</time>
      </trkpt>
      <trkpt lat="45.12478" lon="5.55122">
        <ele>1242</ele>
        <time>2016-09-30T07:39:16Z</time>
      </trkpt>
      <trkpt lat="45.12474" lon="5.5511">
        <ele>1243</ele>
        <time>2016-09-30T07:39:29Z</time>
      </trkpt>
      <trkpt lat="45.12473" lon="5.55097">
        <ele>1243</ele>
        <time>2016-09-30T07:39:40Z</time>
      </trkpt>
      <trkpt lat="45.12472" lon="5.55071">
        <ele>1242</ele>
        <time>2016-09-30T07:39:59Z</time>
      </trkpt>
      <trkpt lat="45.12468" lon="5.55058">
        <ele>1241</ele>
        <time>2016-09-30T07:40:08Z</time>
      </trkpt>
      <trkpt lat="45.12464" lon="5.55032">
        <ele>1242</ele>
        <time>2016-09-30T07:40:32Z</time>
      </trkpt>
      <trkpt lat="45.1247" lon="5.55038">
        <ele>1242</ele>
        <time>2016-09-30T07:40:53Z</time>
      </trkpt>
      <trkpt lat="45.12472" lon="5.5505">
        <ele>1241</ele>
        <time>2016-09-30T07:41:00Z</time>
      </trkpt>
      <trkpt lat="45.12469" lon="5.55063">
        <ele>1241</ele>
        <time>2016-09-30T07:41:09Z</time>
      </trkpt>
      <trkpt lat="45.12465" lon="5.55094">
        <ele>1237</ele>
        <time>2016-09-30T07:41:42Z</time>
      </trkpt>
      <trkpt lat="45.12472" lon="5.55091">
        <ele>1236</ele>
        <time>2016-09-30T07:42:07Z</time>
      </trkpt>
      <trkpt lat="45.1247" lon="5.55066">
        <ele>1237</ele>
        <time>2016-09-30T07:42:25Z</time>
      </trkpt>
      <trkpt lat="45.12462" lon="5.55067">
        <ele>1239</ele>
        <time>2016-09-30T07:43:10Z</time>
      </trkpt>
      <trkpt lat="45.12462" lon="5.55052">
        <ele>1239</ele>
        <time>2016-09-30T07:43:42Z</time>
      </trkpt>
      <trkpt lat="45.12457" lon="5.55012">
        <ele>1242</ele>
        <time>2016-09-30T07:44:00Z</time>
      </trkpt>
      <trkpt lat="45.12453" lon="5.55006">
        <ele>1242</ele>
        <time>2016-09-30T07:44:03Z</time>
      </trkpt>
      <trkpt lat="45.12445" lon="5.55">
        <ele>1243</ele>
        <time>2016-09-30T07:44:08Z</time>
      </trkpt>
      <trkpt lat="45.12438" lon="5.54989">
        <ele>1244</ele>
        <time>2016-09-30T07:44:15Z</time>
      </trkpt>
      <trkpt lat="45.12415" lon="5.54972">
        <ele>1244</ele>
        <time>2016-09-30T07:44:28Z</time>
      </trkpt>
      <trkpt lat="45.12401" lon="5.54972">
        <ele>1244</ele>
        <time>2016-09-30T07:44:34Z</time>
      </trkpt>
      <trkpt lat="45.12372" lon="5.54953">
        <ele>1245</ele>
        <time>2016-09-30T07:44:51Z</time>
      </trkpt>
      <trkpt lat="45.12366" lon="5.54942">
        <ele>1246</ele>
        <time>2016-09-30T07:44:56Z</time>
      </trkpt>
      <trkpt lat="45.12294" lon="5.54921">
        <ele>1245</ele>
        <time>2016-09-30T07:45:31Z</time>
      </trkpt>
      <trkpt lat="45.12265" lon="5.54917">
        <ele>1246</ele>
        <time>2016-09-30T07:45:43Z</time>
      </trkpt>
      <trkpt lat="45.12264" lon="5.54909">
        <ele>1246</ele>
        <time>2016-09-30T07:45:45Z</time>
      </trkpt>
      <trkpt lat="45.1226" lon="5.54901">
        <ele>1246</ele>
        <time>2016-09-30T07:45:50Z</time>
      </trkpt>
      <trkpt lat="45.12237" lon="5.54902">
        <ele>1247</ele>
        <time>2016-09-30T07:46:01Z</time>
      </trkpt>
      <trkpt lat="45.12223" lon="5.54884">
        <ele>1247</ele>
        <time>2016-09-30T07:46:09Z</time>
      </trkpt>
      <trkpt lat="45.12206" lon="5.54885">
        <ele>1247</ele>
        <time>2016-09-30T07:46:15Z</time>
      </trkpt>
      <trkpt lat="45.12192" lon="5.5487">
        <ele>1249</ele>
        <time>2016-09-30T07:46:26Z</time>
      </trkpt>
      <trkpt lat="45.12186" lon="5.54872">
        <ele>1249</ele>
        <time>2016-09-30T07:46:28Z</time>
      </trkpt>
      <trkpt lat="45.12178" lon="5.54861">
        <ele>1250</ele>
        <time>2016-09-30T07:46:36Z</time>
      </trkpt>
      <trkpt lat="45.12166" lon="5.54857">
        <ele>1250</ele>
        <time>2016-09-30T07:46:44Z</time>
      </trkpt>
      <trkpt lat="45.12153" lon="5.5486">
        <ele>1251</ele>
        <time>2016-09-30T07:46:48Z</time>
      </trkpt>
      <trkpt lat="45.12128" lon="5.54852">
        <ele>1251</ele>
        <time>2016-09-30T07:47:01Z</time>
      </trkpt>
      <trkpt lat="45.12119" lon="5.54844">
        <ele>1251</ele>
        <time>2016-09-30T07:47:08Z</time>
      </trkpt>
      <trkpt lat="45.1211" lon="5.54842">
        <ele>1251</ele>
        <time>2016-09-30T07:47:14Z</time>
      </trkpt>
      <trkpt lat="45.121" lon="5.54847">
        <ele>1251</ele>
        <time>2016-09-30T07:47:20Z</time>
      </trkpt>
      <trkpt lat="45.12081" lon="5.54844">
        <ele>1250</ele>
        <time>2016-09-30T07:47:41Z</time>
      </trkpt>
      <trkpt lat="45.12072" lon="5.54842">
        <ele>1250</ele>
        <time>2016-09-30T07:47:48Z</time>
      </trkpt>
      <trkpt lat="45.12063" lon="5.54843">
        <ele>1251</ele>
        <time>2016-09-30T07:48:01Z</time>
      </trkpt>
      <trkpt lat="45.12053" lon="5.54846">
        <ele>1252</ele>
        <time>2016-09-30T07:48:08Z</time>
      </trkpt>
      <trkpt lat="45.12044" lon="5.54851">
        <ele>1253</ele>
        <time>2016-09-30T07:48:18Z</time>
      </trkpt>
      <trkpt lat="45.12019" lon="5.5487">
        <ele>1253</ele>
        <time>2016-09-30T07:48:43Z</time>
      </trkpt>
      <trkpt lat="45.12011" lon="5.54877">
        <ele>1252</ele>
        <time>2016-09-30T07:48:49Z</time>
      </trkpt>
      <trkpt lat="45.12002" lon="5.54881">
        <ele>1252</ele>
        <time>2016-09-30T07:48:57Z</time>
      </trkpt>
      <trkpt lat="45.11993" lon="5.54885">
        <ele>1253</ele>
        <time>2016-09-30T07:49:07Z</time>
      </trkpt>
      <trkpt lat="45.11964" lon="5.54882">
        <ele>1255</ele>
        <time>2016-09-30T07:49:32Z</time>
      </trkpt>
      <trkpt lat="45.11962" lon="5.54869">
        <ele>1255</ele>
        <time>2016-09-30T07:49:41Z</time>
      </trkpt>
      <trkpt lat="45.11957" lon="5.54858">
        <ele>1256</ele>
        <time>2016-09-30T07:49:49Z</time>
      </trkpt>
      <trkpt lat="45.11957" lon="5.54831">
        <ele>1256</ele>
        <time>2016-09-30T07:50:10Z</time>
      </trkpt>
      <trkpt lat="45.11957" lon="5.54801">
        <ele>1258</ele>
        <time>2016-09-30T07:50:50Z</time>
      </trkpt>
      <trkpt lat="45.11953" lon="5.54789">
        <ele>1257</ele>
        <time>2016-09-30T07:50:59Z</time>
      </trkpt>
      <trkpt lat="45.11947" lon="5.5478">
        <ele>1257</ele>
        <time>2016-09-30T07:51:07Z</time>
      </trkpt>
      <trkpt lat="45.11938" lon="5.54776">
        <ele>1257</ele>
        <time>2016-09-30T07:51:17Z</time>
      </trkpt>
      <trkpt lat="45.11919" lon="5.54776">
        <ele>1258</ele>
        <time>2016-09-30T07:51:42Z</time>
      </trkpt>
      <trkpt lat="45.11911" lon="5.54779">
        <ele>1258</ele>
        <time>2016-09-30T07:51:49Z</time>
      </trkpt>
      <trkpt lat="45.11902" lon="5.54775">
        <ele>1259</ele>
        <time>2016-09-30T07:52:14Z</time>
      </trkpt>
      <trkpt lat="45.11897" lon="5.54771">
        <ele>1259</ele>
        <time>2016-09-30T07:52:31Z</time>
      </trkpt>
      <trkpt lat="45.11887" lon="5.54779">
        <ele>1259</ele>
        <time>2016-09-30T07:52:47Z</time>
      </trkpt>
      <trkpt lat="45.11867" lon="5.54783">
        <ele>1258</ele>
        <time>2016-09-30T07:53:14Z</time>
      </trkpt>
      <trkpt lat="45.11842" lon="5.54798">
        <ele>1259</ele>
        <time>2016-09-30T07:53:45Z</time>
      </trkpt>
      <trkpt lat="45.11828" lon="5.54809">
        <ele>1259</ele>
        <time>2016-09-30T07:53:54Z</time>
      </trkpt>
      <trkpt lat="45.1182" lon="5.54815">
        <ele>1260</ele>
        <time>2016-09-30T07:54:00Z</time>
      </trkpt>
      <trkpt lat="45.1181" lon="5.54814">
        <ele>1261</ele>
        <time>2016-09-30T07:54:09Z</time>
      </trkpt>
      <trkpt lat="45.11802" lon="5.54821">
        <ele>1262</ele>
        <time>2016-09-30T07:54:21Z</time>
      </trkpt>
      <trkpt lat="45.11794" lon="5.54809">
        <ele>1261</ele>
        <time>2016-09-30T07:54:31Z</time>
      </trkpt>
      <trkpt lat="45.11787" lon="5.54808">
        <ele>1262</ele>
        <time>2016-09-30T07:54:46Z</time>
      </trkpt>
      <trkpt lat="45.1178" lon="5.54818">
        <ele>1264</ele>
        <time>2016-09-30T07:54:54Z</time>
      </trkpt>
      <trkpt lat="45.1177" lon="5.54815">
        <ele>1264</ele>
        <time>2016-09-30T07:55:06Z</time>
      </trkpt>
      <trkpt lat="45.11761" lon="5.54818">
        <ele>1266</ele>
        <time>2016-09-30T07:55:16Z</time>
      </trkpt>
      <trkpt lat="45.11751" lon="5.54816">
        <ele>1267</ele>
        <time>2016-09-30T07:55:26Z</time>
      </trkpt>
      <trkpt lat="45.11743" lon="5.54819">
        <ele>1268</ele>
        <time>2016-09-30T07:55:36Z</time>
      </trkpt>
      <trkpt lat="45.11712" lon="5.54842">
        <ele>1267</ele>
        <time>2016-09-30T07:55:59Z</time>
      </trkpt>
      <trkpt lat="45.11702" lon="5.54839">
        <ele>1268</ele>
        <time>2016-09-30T07:56:17Z</time>
      </trkpt>
      <trkpt lat="45.11666" lon="5.54859">
        <ele>1268</ele>
        <time>2016-09-30T07:56:50Z</time>
      </trkpt>
      <trkpt lat="45.11657" lon="5.54857">
        <ele>1268</ele>
        <time>2016-09-30T07:57:06Z</time>
      </trkpt>
      <trkpt lat="45.11649" lon="5.54865">
        <ele>1267</ele>
        <time>2016-09-30T07:57:24Z</time>
      </trkpt>
      <trkpt lat="45.1163" lon="5.54869">
        <ele>1268</ele>
        <time>2016-09-30T07:57:42Z</time>
      </trkpt>
      <trkpt lat="45.11621" lon="5.54872">
        <ele>1268</ele>
        <time>2016-09-30T07:57:50Z</time>
      </trkpt>
      <trkpt lat="45.11613" lon="5.54879">
        <ele>1266</ele>
        <time>2016-09-30T07:58:02Z</time>
      </trkpt>
      <trkpt lat="45.11593" lon="5.54881">
        <ele>1266</ele>
        <time>2016-09-30T07:58:29Z</time>
      </trkpt>
      <trkpt lat="45.11577" lon="5.54868">
        <ele>1268</ele>
        <time>2016-09-30T07:58:51Z</time>
      </trkpt>
      <trkpt lat="45.11584" lon="5.54876">
        <ele>1269</ele>
        <time>2016-09-30T07:59:10Z</time>
      </trkpt>
      <trkpt lat="45.11589" lon="5.54876">
        <ele>1269</ele>
        <time>2016-09-30T07:59:27Z</time>
      </trkpt>
      <trkpt lat="45.11588" lon="5.54883">
        <ele>1269</ele>
        <time>2016-09-30T08:01:46Z</time>
      </trkpt>
      <trkpt lat="45.11599" lon="5.5488">
        <ele>1269</ele>
        <time>2016-09-30T08:03:07Z</time>
      </trkpt>
      <trkpt lat="45.11602" lon="5.54892">
        <ele>1268</ele>
        <time>2016-09-30T08:03:39Z</time>
      </trkpt>
      <trkpt lat="45.11602" lon="5.54906">
        <ele>1266</ele>
        <time>2016-09-30T08:03:48Z</time>
      </trkpt>
      <trkpt lat="45.11598" lon="5.54963">
        <ele>1263</ele>
        <time>2016-09-30T08:04:26Z</time>
      </trkpt>
      <trkpt lat="45.11607" lon="5.55014">
        <ele>1258</ele>
        <time>2016-09-30T08:05:03Z</time>
      </trkpt>
      <trkpt lat="45.11611" lon="5.55027">
        <ele>1255</ele>
        <time>2016-09-30T08:05:12Z</time>
      </trkpt>
      <trkpt lat="45.1161" lon="5.55041">
        <ele>1254</ele>
        <time>2016-09-30T08:05:22Z</time>
      </trkpt>
      <trkpt lat="45.11613" lon="5.55055">
        <ele>1251</ele>
        <time>2016-09-30T08:05:32Z</time>
      </trkpt>
      <trkpt lat="45.11619" lon="5.55064">
        <ele>1250</ele>
        <time>2016-09-30T08:05:39Z</time>
      </trkpt>
      <trkpt lat="45.11621" lon="5.55078">
        <ele>1249</ele>
        <time>2016-09-30T08:05:49Z</time>
      </trkpt>
      <trkpt lat="45.11624" lon="5.5513">
        <ele>1247</ele>
        <time>2016-09-30T08:06:21Z</time>
      </trkpt>
      <trkpt lat="45.11629" lon="5.55141">
        <ele>1246</ele>
        <time>2016-09-30T08:06:30Z</time>
      </trkpt>
      <trkpt lat="45.11636" lon="5.55167">
        <ele>1244</ele>
        <time>2016-09-30T08:06:51Z</time>
      </trkpt>
      <trkpt lat="45.11644" lon="5.55176">
        <ele>1243</ele>
        <time>2016-09-30T08:06:58Z</time>
      </trkpt>
      <trkpt lat="45.11647" lon="5.55189">
        <ele>1242</ele>
        <time>2016-09-30T08:07:07Z</time>
      </trkpt>
      <trkpt lat="45.11648" lon="5.55216">
        <ele>1237</ele>
        <time>2016-09-30T08:07:38Z</time>
      </trkpt>
      <trkpt lat="45.11652" lon="5.55223">
        <ele>1233</ele>
        <time>2016-09-30T08:08:46Z</time>
      </trkpt>
      <trkpt lat="45.11653" lon="5.55236">
        <ele>1233</ele>
        <time>2016-09-30T08:08:57Z</time>
      </trkpt>
      <trkpt lat="45.11661" lon="5.55244">
        <ele>1232</ele>
        <time>2016-09-30T08:09:05Z</time>
      </trkpt>
      <trkpt lat="45.11677" lon="5.55259">
        <ele>1230</ele>
        <time>2016-09-30T08:09:26Z</time>
      </trkpt>
      <trkpt lat="45.11686" lon="5.55264">
        <ele>1230</ele>
        <time>2016-09-30T08:09:38Z</time>
      </trkpt>
      <trkpt lat="45.11705" lon="5.55268">
        <ele>1231</ele>
        <time>2016-09-30T08:09:53Z</time>
      </trkpt>
      <trkpt lat="45.11744" lon="5.55262">
        <ele>1235</ele>
        <time>2016-09-30T08:10:31Z</time>
      </trkpt>
      <trkpt lat="45.11753" lon="5.5526">
        <ele>1237</ele>
        <time>2016-09-30T08:10:42Z</time>
      </trkpt>
      <trkpt lat="45.11765" lon="5.55241">
        <ele>1239</ele>
        <time>2016-09-30T08:11:04Z</time>
      </trkpt>
      <trkpt lat="45.11784" lon="5.5523">
        <ele>1241</ele>
        <time>2016-09-30T08:11:24Z</time>
      </trkpt>
      <trkpt lat="45.11789" lon="5.55225">
        <ele>1240</ele>
        <time>2016-09-30T08:11:41Z</time>
      </trkpt>
      <trkpt lat="45.11791" lon="5.55239">
        <ele>1238</ele>
        <time>2016-09-30T08:11:49Z</time>
      </trkpt>
      <trkpt lat="45.11801" lon="5.5526">
        <ele>1233</ele>
        <time>2016-09-30T08:12:04Z</time>
      </trkpt>
      <trkpt lat="45.11811" lon="5.55285">
        <ele>1230</ele>
        <time>2016-09-30T08:12:30Z</time>
      </trkpt>
      <trkpt lat="45.11809" lon="5.55311">
        <ele>1230</ele>
        <time>2016-09-30T08:12:49Z</time>
      </trkpt>
      <trkpt lat="45.11815" lon="5.55351">
        <ele>1226</ele>
        <time>2016-09-30T08:13:20Z</time>
      </trkpt>
      <trkpt lat="45.1182" lon="5.55362">
        <ele>1227</ele>
        <time>2016-09-30T08:13:31Z</time>
      </trkpt>
      <trkpt lat="45.11835" lon="5.55379">
        <ele>1227</ele>
        <time>2016-09-30T08:13:52Z</time>
      </trkpt>
      <trkpt lat="45.11841" lon="5.55389">
        <ele>1227</ele>
        <time>2016-09-30T08:14:01Z</time>
      </trkpt>
      <trkpt lat="45.11859" lon="5.5542">
        <ele>1228</ele>
        <time>2016-09-30T08:14:27Z</time>
      </trkpt>
      <trkpt lat="45.11886" lon="5.55458">
        <ele>1227</ele>
        <time>2016-09-30T08:15:02Z</time>
      </trkpt>
      <trkpt lat="45.11894" lon="5.55481">
        <ele>1225</ele>
        <time>2016-09-30T08:15:24Z</time>
      </trkpt>
      <trkpt lat="45.11895" lon="5.55507">
        <ele>1222</ele>
        <time>2016-09-30T08:15:49Z</time>
      </trkpt>
      <trkpt lat="45.119" lon="5.5552">
        <ele>1221</ele>
        <time>2016-09-30T08:16:01Z</time>
      </trkpt>
      <trkpt lat="45.119" lon="5.55533">
        <ele>1221</ele>
        <time>2016-09-30T08:16:10Z</time>
      </trkpt>
      <trkpt lat="45.11907" lon="5.55543">
        <ele>1220</ele>
        <time>2016-09-30T08:16:19Z</time>
      </trkpt>
      <trkpt lat="45.11915" lon="5.55549">
        <ele>1220</ele>
        <time>2016-09-30T08:16:26Z</time>
      </trkpt>
      <trkpt lat="45.11919" lon="5.55561">
        <ele>1219</ele>
        <time>2016-09-30T08:16:34Z</time>
      </trkpt>
      <trkpt lat="45.11914" lon="5.55573">
        <ele>1218</ele>
        <time>2016-09-30T08:16:42Z</time>
      </trkpt>
      <trkpt lat="45.11921" lon="5.55582">
        <ele>1218</ele>
        <time>2016-09-30T08:16:52Z</time>
      </trkpt>
      <trkpt lat="45.11935" lon="5.556">
        <ele>1218</ele>
        <time>2016-09-30T08:17:12Z</time>
      </trkpt>
      <trkpt lat="45.1195" lon="5.55635">
        <ele>1216</ele>
        <time>2016-09-30T08:17:40Z</time>
      </trkpt>
      <trkpt lat="45.11954" lon="5.55648">
        <ele>1215</ele>
        <time>2016-09-30T08:17:49Z</time>
      </trkpt>
      <trkpt lat="45.11957" lon="5.5566">
        <ele>1214</ele>
        <time>2016-09-30T08:17:58Z</time>
      </trkpt>
      <trkpt lat="45.11957" lon="5.557">
        <ele>1210</ele>
        <time>2016-09-30T08:18:25Z</time>
      </trkpt>
      <trkpt lat="45.11965" lon="5.55707">
        <ele>1209</ele>
        <time>2016-09-30T08:18:35Z</time>
      </trkpt>
      <trkpt lat="45.11984" lon="5.55715">
        <ele>1206</ele>
        <time>2016-09-30T08:18:55Z</time>
      </trkpt>
      <trkpt lat="45.11989" lon="5.55727">
        <ele>1205</ele>
        <time>2016-09-30T08:19:03Z</time>
      </trkpt>
      <trkpt lat="45.11996" lon="5.55735">
        <ele>1204</ele>
        <time>2016-09-30T08:19:11Z</time>
      </trkpt>
      <trkpt lat="45.11997" lon="5.55748">
        <ele>1204</ele>
        <time>2016-09-30T08:19:20Z</time>
      </trkpt>
      <trkpt lat="45.11999" lon="5.55768">
        <ele>1202</ele>
        <time>2016-09-30T08:19:36Z</time>
      </trkpt>
      <trkpt lat="45.12004" lon="5.55787">
        <ele>1201</ele>
        <time>2016-09-30T08:19:52Z</time>
      </trkpt>
      <trkpt lat="45.12009" lon="5.55827">
        <ele>1197</ele>
        <time>2016-09-30T08:20:24Z</time>
      </trkpt>
      <trkpt lat="45.12009" lon="5.55862">
        <ele>1194</ele>
        <time>2016-09-30T08:20:55Z</time>
      </trkpt>
      <trkpt lat="45.12004" lon="5.55864">
        <ele>1194</ele>
        <time>2016-09-30T08:21:03Z</time>
      </trkpt>
      <trkpt lat="45.11996" lon="5.55873">
        <ele>1192</ele>
        <time>2016-09-30T08:21:30Z</time>
      </trkpt>
      <trkpt lat="45.11993" lon="5.55869">
        <ele>1192</ele>
        <time>2016-09-30T08:22:10Z</time>
      </trkpt>
      <trkpt lat="45.1199" lon="5.5587">
        <ele>1193</ele>
        <time>2016-09-30T08:22:25Z</time>
      </trkpt>
      <trkpt lat="45.11997" lon="5.55863">
        <ele>1194</ele>
        <time>2016-09-30T08:22:55Z</time>
      </trkpt>
      <trkpt lat="45.12005" lon="5.55854">
        <ele>1195</ele>
        <time>2016-09-30T08:23:07Z</time>
      </trkpt>
      <trkpt lat="45.1201" lon="5.55843">
        <ele>1198</ele>
        <time>2016-09-30T08:23:19Z</time>
      </trkpt>
      <trkpt lat="45.12019" lon="5.55836">
        <ele>1199</ele>
        <time>2016-09-30T08:23:33Z</time>
      </trkpt>
      <trkpt lat="45.12028" lon="5.55836">
        <ele>1200</ele>
        <time>2016-09-30T08:23:47Z</time>
      </trkpt>
      <trkpt lat="45.12036" lon="5.5583">
        <ele>1200</ele>
        <time>2016-09-30T08:23:58Z</time>
      </trkpt>
      <trkpt lat="45.12045" lon="5.55837">
        <ele>1199</ele>
        <time>2016-09-30T08:24:15Z</time>
      </trkpt>
      <trkpt lat="45.12053" lon="5.55831">
        <ele>1199</ele>
        <time>2016-09-30T08:24:26Z</time>
      </trkpt>
      <trkpt lat="45.12054" lon="5.55818">
        <ele>1198</ele>
        <time>2016-09-30T08:24:32Z</time>
      </trkpt>
      <trkpt lat="45.12057" lon="5.55805">
        <ele>1197</ele>
        <time>2016-09-30T08:24:42Z</time>
      </trkpt>
      <trkpt lat="45.12061" lon="5.55792">
        <ele>1198</ele>
        <time>2016-09-30T08:24:51Z</time>
      </trkpt>
      <trkpt lat="45.12082" lon="5.5577">
        <ele>1200</ele>
        <time>2016-09-30T08:25:22Z</time>
      </trkpt>
      <trkpt lat="45.12091" lon="5.55765">
        <ele>1201</ele>
        <time>2016-09-30T08:25:37Z</time>
      </trkpt>
      <trkpt lat="45.12101" lon="5.55742">
        <ele>1204</ele>
        <time>2016-09-30T08:25:53Z</time>
      </trkpt>
      <trkpt lat="45.12112" lon="5.55742">
        <ele>1205</ele>
        <time>2016-09-30T08:26:13Z</time>
      </trkpt>
      <trkpt lat="45.12113" lon="5.55729">
        <ele>1204</ele>
        <time>2016-09-30T08:26:25Z</time>
      </trkpt>
      <trkpt lat="45.12121" lon="5.55719">
        <ele>1203</ele>
        <time>2016-09-30T08:26:34Z</time>
      </trkpt>
      <trkpt lat="45.12129" lon="5.55706">
        <ele>1203</ele>
        <time>2016-09-30T08:26:42Z</time>
      </trkpt>
      <trkpt lat="45.12153" lon="5.55687">
        <ele>1202</ele>
        <time>2016-09-30T08:27:15Z</time>
      </trkpt>
      <trkpt lat="45.12183" lon="5.55654">
        <ele>1206</ele>
        <time>2016-09-30T08:27:49Z</time>
      </trkpt>
      <trkpt lat="45.12188" lon="5.55644">
        <ele>1207</ele>
        <time>2016-09-30T08:27:58Z</time>
      </trkpt>
      <trkpt lat="45.1222" lon="5.55612">
        <ele>1206</ele>
        <time>2016-09-30T08:28:30Z</time>
      </trkpt>
      <trkpt lat="45.12229" lon="5.55608">
        <ele>1206</ele>
        <time>2016-09-30T08:28:38Z</time>
      </trkpt>
      <trkpt lat="45.12239" lon="5.55604">
        <ele>1206</ele>
        <time>2016-09-30T08:28:46Z</time>
      </trkpt>
      <trkpt lat="45.12249" lon="5.55604">
        <ele>1206</ele>
        <time>2016-09-30T08:28:53Z</time>
      </trkpt>
      <trkpt lat="45.12259" lon="5.55604">
        <ele>1207</ele>
        <time>2016-09-30T08:29:02Z</time>
      </trkpt>
      <trkpt lat="45.12267" lon="5.55611">
        <ele>1208</ele>
        <time>2016-09-30T08:29:13Z</time>
      </trkpt>
      <trkpt lat="45.12266" lon="5.55624">
        <ele>1209</ele>
        <time>2016-09-30T08:29:28Z</time>
      </trkpt>
      <trkpt lat="45.12266" lon="5.55637">
        <ele>1209</ele>
        <time>2016-09-30T08:29:38Z</time>
      </trkpt>
      <trkpt lat="45.12253" lon="5.55658">
        <ele>1208</ele>
        <time>2016-09-30T08:30:02Z</time>
      </trkpt>
      <trkpt lat="45.12251" lon="5.55671">
        <ele>1206</ele>
        <time>2016-09-30T08:30:12Z</time>
      </trkpt>
      <trkpt lat="45.12248" lon="5.55684">
        <ele>1205</ele>
        <time>2016-09-30T08:30:27Z</time>
      </trkpt>
      <trkpt lat="45.1225" lon="5.55714">
        <ele>1204</ele>
        <time>2016-09-30T08:31:05Z</time>
      </trkpt>
      <trkpt lat="45.12264" lon="5.55732">
        <ele>1202</ele>
        <time>2016-09-30T08:31:31Z</time>
      </trkpt>
      <trkpt lat="45.12273" lon="5.55735">
        <ele>1202</ele>
        <time>2016-09-30T08:31:42Z</time>
      </trkpt>
      <trkpt lat="45.12281" lon="5.5574">
        <ele>1203</ele>
        <time>2016-09-30T08:31:51Z</time>
      </trkpt>
      <trkpt lat="45.12307" lon="5.55752">
        <ele>1209</ele>
        <time>2016-09-30T08:32:18Z</time>
      </trkpt>
      <trkpt lat="45.12334" lon="5.55764">
        <ele>1210</ele>
        <time>2016-09-30T08:32:44Z</time>
      </trkpt>
      <trkpt lat="45.12343" lon="5.55764">
        <ele>1210</ele>
        <time>2016-09-30T08:32:54Z</time>
      </trkpt>
      <trkpt lat="45.12372" lon="5.55747">
        <ele>1211</ele>
        <time>2016-09-30T08:33:25Z</time>
      </trkpt>
      <trkpt lat="45.1242" lon="5.5574">
        <ele>1213</ele>
        <time>2016-09-30T08:34:00Z</time>
      </trkpt>
      <trkpt lat="45.12438" lon="5.55748">
        <ele>1214</ele>
        <time>2016-09-30T08:34:20Z</time>
      </trkpt>
      <trkpt lat="45.12447" lon="5.5575">
        <ele>1214</ele>
        <time>2016-09-30T08:34:29Z</time>
      </trkpt>
      <trkpt lat="45.12449" lon="5.55745">
        <ele>1215</ele>
        <time>2016-09-30T08:35:20Z</time>
      </trkpt>
      <trkpt lat="45.12439" lon="5.55738">
        <ele>1215</ele>
        <time>2016-09-30T08:35:40Z</time>
      </trkpt>
      <trkpt lat="45.12437" lon="5.55728">
        <ele>1214</ele>
        <time>2016-09-30T08:36:41Z</time>
      </trkpt>
      <trkpt lat="45.12449" lon="5.55736">
        <ele>1214</ele>
        <time>2016-09-30T08:36:54Z</time>
      </trkpt>
      <trkpt lat="45.12457" lon="5.55739">
        <ele>1215</ele>
        <time>2016-09-30T08:37:16Z</time>
      </trkpt>
      <trkpt lat="45.12461" lon="5.5575">
        <ele>1216</ele>
        <time>2016-09-30T08:37:40Z</time>
      </trkpt>
      <trkpt lat="45.1247" lon="5.55754">
        <ele>1219</ele>
        <time>2016-09-30T08:37:52Z</time>
      </trkpt>
      <trkpt lat="45.12478" lon="5.55759">
        <ele>1218</ele>
        <time>2016-09-30T08:38:05Z</time>
      </trkpt>
      <trkpt lat="45.12484" lon="5.55771">
        <ele>1216</ele>
        <time>2016-09-30T08:38:18Z</time>
      </trkpt>
      <trkpt lat="45.12491" lon="5.55778">
        <ele>1216</ele>
        <time>2016-09-30T08:38:27Z</time>
      </trkpt>
      <trkpt lat="45.12494" lon="5.55791">
        <ele>1218</ele>
        <time>2016-09-30T08:38:40Z</time>
      </trkpt>
      <trkpt lat="45.12508" lon="5.5581">
        <ele>1217</ele>
        <time>2016-09-30T08:38:58Z</time>
      </trkpt>
      <trkpt lat="45.12525" lon="5.55821">
        <ele>1216</ele>
        <time>2016-09-30T08:39:17Z</time>
      </trkpt>
      <trkpt lat="45.12534" lon="5.55825">
        <ele>1216</ele>
        <time>2016-09-30T08:39:23Z</time>
      </trkpt>
      <trkpt lat="45.12543" lon="5.55826">
        <ele>1217</ele>
        <time>2016-09-30T08:39:32Z</time>
      </trkpt>
      <trkpt lat="45.12553" lon="5.5583">
        <ele>1217</ele>
        <time>2016-09-30T08:39:42Z</time>
      </trkpt>
      <trkpt lat="45.12592" lon="5.5583">
        <ele>1218</ele>
        <time>2016-09-30T08:40:16Z</time>
      </trkpt>
      <trkpt lat="45.12616" lon="5.55812">
        <ele>1220</ele>
        <time>2016-09-30T08:40:42Z</time>
      </trkpt>
      <trkpt lat="45.12637" lon="5.55785">
        <ele>1224</ele>
        <time>2016-09-30T08:41:13Z</time>
      </trkpt>
      <trkpt lat="45.12643" lon="5.55775">
        <ele>1225</ele>
        <time>2016-09-30T08:41:21Z</time>
      </trkpt>
      <trkpt lat="45.12652" lon="5.5577">
        <ele>1226</ele>
        <time>2016-09-30T08:41:30Z</time>
      </trkpt>
      <trkpt lat="45.12661" lon="5.55769">
        <ele>1226</ele>
        <time>2016-09-30T08:41:38Z</time>
      </trkpt>
      <trkpt lat="45.12671" lon="5.55769">
        <ele>1224</ele>
        <time>2016-09-30T08:41:53Z</time>
      </trkpt>
      <trkpt lat="45.12698" lon="5.55787">
        <ele>1222</ele>
        <time>2016-09-30T08:42:14Z</time>
      </trkpt>
      <trkpt lat="45.12706" lon="5.55794">
        <ele>1222</ele>
        <time>2016-09-30T08:42:26Z</time>
      </trkpt>
      <trkpt lat="45.12722" lon="5.55806">
        <ele>1219</ele>
        <time>2016-09-30T08:42:47Z</time>
      </trkpt>
      <trkpt lat="45.12732" lon="5.55811">
        <ele>1219</ele>
        <time>2016-09-30T08:42:55Z</time>
      </trkpt>
      <trkpt lat="45.12749" lon="5.55822">
        <ele>1210.2</ele>
      </trkpt>
      <trkpt lat="45.12758" lon="5.55827">
        <ele>1210.5</ele>
      </trkpt>
      <trkpt lat="45.12762" lon="5.5583">
        <ele>1210.7</ele>
      </trkpt>
      <trkpt lat="45.12764" lon="5.55831">
        <ele>1210.8</ele>
      </trkpt>
      <trkpt lat="45.12766" lon="5.55832">
        <ele>1210.9</ele>
      </trkpt>
      <trkpt lat="45.12766" lon="5.55832">
        <ele>1210.9</ele>
      </trkpt>
      <trkpt lat="45.12766" lon="5.55832">
        <ele>1210.9</ele>
      </trkpt>
      <trkpt lat="45.12766" lon="5.55832">
        <ele>1210.9</ele>
      </trkpt>
      <trkpt lat="45.12767" lon="5.55832">
        <ele>1210.9</ele>
      </trkpt>
      <trkpt lat="45.12767" lon="5.55832">
        <ele>1210.9</ele>
      </trkpt>
      <trkpt lat="45.12767" lon="5.55832">
        <ele>1210.9</ele>
      </trkpt>
      <trkpt lat="45.12767" lon="5.55832">
        <ele>1219</ele>
        <time>2016-09-30T08:43:35Z</time>
      </trkpt>
      <trkpt lat="45.12802" lon="5.55852">
        <ele>1221</ele>
        <time>2016-09-30T08:44:11Z</time>
      </trkpt>
      <trkpt lat="45.12813" lon="5.55853">
        <ele>1221</ele>
        <time>2016-09-30T08:44:22Z</time>
      </trkpt>
      <trkpt lat="45.12822" lon="5.55854">
        <ele>1221</ele>
        <time>2016-09-30T08:44:29Z</time>
      </trkpt>
      <trkpt lat="45.12832" lon="5.55857">
        <ele>1221</ele>
        <time>2016-09-30T08:44:37Z</time>
      </trkpt>
      <trkpt lat="45.12847" lon="5.55871">
        <ele>1221</ele>
        <time>2016-09-30T08:44:53Z</time>
      </trkpt>
      <trkpt lat="45.12885" lon="5.55881">
        <ele>1223</ele>
        <time>2016-09-30T08:45:27Z</time>
      </trkpt>
      <trkpt lat="45.12923" lon="5.55881">
        <ele>1224</ele>
        <time>2016-09-30T08:46:06Z</time>
      </trkpt>
      <trkpt lat="45.12943" lon="5.55885">
        <ele>1225</ele>
        <time>2016-09-30T08:46:21Z</time>
      </trkpt>
      <trkpt lat="45.12951" lon="5.55892">
        <ele>1226</ele>
        <time>2016-09-30T08:46:32Z</time>
      </trkpt>
      <trkpt lat="45.12959" lon="5.55899">
        <ele>1226</ele>
        <time>2016-09-30T08:46:43Z</time>
      </trkpt>
      <trkpt lat="45.12976" lon="5.55913">
        <ele>1228</ele>
        <time>2016-09-30T08:47:00Z</time>
      </trkpt>
      <trkpt lat="45.12982" lon="5.55923">
        <ele>1228</ele>
        <time>2016-09-30T08:47:12Z</time>
      </trkpt>
      <trkpt lat="45.12995" lon="5.5593">
        <ele>1226</ele>
        <time>2016-09-30T08:47:39Z</time>
      </trkpt>
    </trkseg>
  </trk>
  <rte>
    <name><![CDATA[30 sept. 2016 09:24:08]]></name>
    <cmt><![CDATA[30 sept. 2016 09:24:08]]></cmt>
    <desc><![CDATA[{DC1}Heure de fin	: 10:47:39
Durée totale	: 1h23:31
Moyenne globale	: 3.4 km/h
Aire incluse	: 564.7699 ha
Détails par segments
distance  | durée    | vit.moy. | vit.max. | déniv. + | déniv -
   km     | hh:mn:ss |   km/h   |   km/h   |    m     |    m
     4.41 | 01:16:19 |      3.5 |     14.0 |      103 |     -107
     0.10 | 00:01:27 |      4.0 |      4.2 |        1 |        0
     0.21 | 00:03:10 |      3.9 |      5.4 |        5 |       -1{DC2}]]></desc>
      <rtept lat="45.12732" lon="5.55811">
        <ele>1219</ele>
      </rtept>
      <rtept lat="45.12822" lon="5.55854">
        <ele>1221</ele>
      </rtept>
    </rte>
</gpx>